sensor_id;sensor_type;location;lat;lon;timestamp;P1;durP1;ratioP1;P2;durP2;ratioP2
63807;SDS011;49961;43.970;22.868;2022-11-03T00:00:36;12.77;;;7.90;;
63807;SDS011;49961;43.970;22.868;2022-11-03T00:01:38;12.20;;;7.27;;
63807;SDS011;49961;43.970;22.868;2022-11-03T00:02:43;14.30;;;7.43;;
63807;SDS011;49961;43.970;22.868;2022-11-03T00:03:43;14.70;;;7.37;;
63807;SDS011;49961;43.970;22.868;2022-11-03T00:04:43;15.10;;;7.23;;
63807;SDS011;49961;43.970;22.868;2022-11-03T00:05:44;11.17;;;7.27;;
63807;SDS011;49961;43.970;22.868;2022-11-03T00:07:03;12.30;;;7.33;;
63807;SDS011;49961;43.970;22.868;2022-11-03T00:08:04;12.70;;;7.27;;
63807;SDS011;49961;43.970;22.868;2022-11-03T00:09:05;11.60;;;6.90;;
63807;SDS011;49961;43.970;22.868;2022-11-03T00:10:07;12.93;;;6.93;;
63807;SDS011;49961;43.970;22.868;2022-11-03T00:11:09;13.20;;;6.73;;
63807;SDS011;49961;43.970;22.868;2022-11-03T00:12:11;11.63;;;6.70;;
63807;SDS011;49961;43.970;22.868;2022-11-03T00:13:12;12.10;;;6.93;;
63807;SDS011;49961;43.970;22.868;2022-11-03T00:14:12;11.13;;;6.60;;
63807;SDS011;49961;43.970;22.868;2022-11-03T00:15:15;13.90;;;7.57;;
63807;SDS011;49961;43.970;22.868;2022-11-03T00:16:16;27.00;;;7.90;;
63807;SDS011;49961;43.970;22.868;2022-11-03T00:17:16;16.20;;;7.37;;
63807;SDS011;49961;43.970;22.868;2022-11-03T00:18:17;16.83;;;7.60;;
63807;SDS011;49961;43.970;22.868;2022-11-03T00:19:17;12.40;;;7.67;;
63807;SDS011;49961;43.970;22.868;2022-11-03T00:20:18;12.23;;;7.40;;
63807;SDS011;49961;43.970;22.868;2022-11-03T00:21:18;14.37;;;7.03;;
63807;SDS011;49961;43.970;22.868;2022-11-03T00:22:19;13.60;;;7.10;;
63807;SDS011;49961;43.970;22.868;2022-11-03T00:23:19;13.77;;;7.90;;
63807;SDS011;49961;43.970;22.868;2022-11-03T00:24:20;13.97;;;7.03;;
63807;SDS011;49961;43.970;22.868;2022-11-03T00:25:20;18.23;;;7.07;;
63807;SDS011;49961;43.970;22.868;2022-11-03T00:26:24;12.63;;;7.37;;
63807;SDS011;49961;43.970;22.868;2022-11-03T00:27:26;16.20;;;7.67;;
63807;SDS011;49961;43.970;22.868;2022-11-03T00:28:29;13.87;;;7.10;;
63807;SDS011;49961;43.970;22.868;2022-11-03T00:29:30;14.73;;;7.27;;
63807;SDS011;49961;43.970;22.868;2022-11-03T00:30:30;12.33;;;7.00;;
63807;SDS011;49961;43.970;22.868;2022-11-03T00:31:32;14.73;;;7.03;;
63807;SDS011;49961;43.970;22.868;2022-11-03T00:32:34;11.93;;;7.80;;
63807;SDS011;49961;43.970;22.868;2022-11-03T00:33:34;13.37;;;7.77;;
63807;SDS011;49961;43.970;22.868;2022-11-03T00:34:37;13.67;;;7.27;;
63807;SDS011;49961;43.970;22.868;2022-11-03T00:35:38;12.37;;;7.83;;
63807;SDS011;49961;43.970;22.868;2022-11-03T00:36:42;16.77;;;7.20;;
63807;SDS011;49961;43.970;22.868;2022-11-03T00:37:43;14.63;;;7.70;;
63807;SDS011;49961;43.970;22.868;2022-11-03T00:38:44;17.93;;;7.90;;
63807;SDS011;49961;43.970;22.868;2022-11-03T00:39:45;14.00;;;7.47;;
63807;SDS011;49961;43.970;22.868;2022-11-03T00:40:51;13.77;;;7.00;;
63807;SDS011;49961;43.970;22.868;2022-11-03T00:41:52;15.27;;;8.03;;
63807;SDS011;49961;43.970;22.868;2022-11-03T00:42:52;14.07;;;7.70;;
63807;SDS011;49961;43.970;22.868;2022-11-03T00:43:53;15.00;;;7.47;;
63807;SDS011;49961;43.970;22.868;2022-11-03T00:44:54;13.40;;;8.40;;
63807;SDS011;49961;43.970;22.868;2022-11-03T00:45:54;15.13;;;7.43;;
63807;SDS011;49961;43.970;22.868;2022-11-03T00:46:55;16.23;;;7.80;;
63807;SDS011;49961;43.970;22.868;2022-11-03T00:47:55;13.07;;;7.33;;
63807;SDS011;49961;43.970;22.868;2022-11-03T00:49:14;12.87;;;7.93;;
63807;SDS011;49961;43.970;22.868;2022-11-03T00:50:15;12.13;;;7.60;;
63807;SDS011;49961;43.970;22.868;2022-11-03T00:51:23;13.80;;;8.13;;
63807;SDS011;49961;43.970;22.868;2022-11-03T00:52:24;14.63;;;7.80;;
63807;SDS011;49961;43.970;22.868;2022-11-03T00:53:25;13.33;;;8.20;;
63807;SDS011;49961;43.970;22.868;2022-11-03T00:54:25;13.07;;;7.10;;
63807;SDS011;49961;43.970;22.868;2022-11-03T00:55:25;14.03;;;8.03;;
63807;SDS011;49961;43.970;22.868;2022-11-03T00:56:30;13.07;;;7.87;;
63807;SDS011;49961;43.970;22.868;2022-11-03T00:57:32;13.60;;;7.87;;
63807;SDS011;49961;43.970;22.868;2022-11-03T00:58:33;14.67;;;7.97;;
63807;SDS011;49961;43.970;22.868;2022-11-03T00:59:33;14.07;;;7.83;;
63807;SDS011;49961;43.970;22.868;2022-11-03T01:00:33;13.60;;;8.77;;
63807;SDS011;49961;43.970;22.868;2022-11-03T01:02:36;12.13;;;7.50;;
63807;SDS011;49961;43.970;22.868;2022-11-03T01:03:37;14.10;;;7.83;;
63807;SDS011;49961;43.970;22.868;2022-11-03T01:04:39;14.57;;;7.83;;
63807;SDS011;49961;43.970;22.868;2022-11-03T01:05:58;12.90;;;7.87;;
63807;SDS011;49961;43.970;22.868;2022-11-03T01:07:18;13.20;;;8.33;;
63807;SDS011;49961;43.970;22.868;2022-11-03T01:08:20;12.90;;;7.87;;
63807;SDS011;49961;43.970;22.868;2022-11-03T01:09:28;14.70;;;7.90;;
63807;SDS011;49961;43.970;22.868;2022-11-03T01:10:30;12.73;;;8.10;;
63807;SDS011;49961;43.970;22.868;2022-11-03T01:11:30;12.27;;;7.87;;
63807;SDS011;49961;43.970;22.868;2022-11-03T01:12:43;13.27;;;8.10;;
63807;SDS011;49961;43.970;22.868;2022-11-03T01:13:43;13.80;;;8.57;;
63807;SDS011;49961;43.970;22.868;2022-11-03T01:14:49;15.00;;;8.23;;
63807;SDS011;49961;43.970;22.868;2022-11-03T01:15:51;14.93;;;8.53;;
63807;SDS011;49961;43.970;22.868;2022-11-03T01:16:55;14.80;;;8.47;;
63807;SDS011;49961;43.970;22.868;2022-11-03T01:17:56;14.87;;;9.00;;
63807;SDS011;49961;43.970;22.868;2022-11-03T01:18:57;15.57;;;9.27;;
63807;SDS011;49961;43.970;22.868;2022-11-03T01:19:57;15.77;;;8.73;;
63807;SDS011;49961;43.970;22.868;2022-11-03T01:20:58;13.97;;;8.90;;
63807;SDS011;49961;43.970;22.868;2022-11-03T01:21:58;13.53;;;8.37;;
63807;SDS011;49961;43.970;22.868;2022-11-03T01:22:59;15.10;;;8.80;;
63807;SDS011;49961;43.970;22.868;2022-11-03T01:23:59;15.60;;;8.80;;
63807;SDS011;49961;43.970;22.868;2022-11-03T01:25:01;14.07;;;8.43;;
63807;SDS011;49961;43.970;22.868;2022-11-03T01:26:04;14.90;;;8.80;;
63807;SDS011;49961;43.970;22.868;2022-11-03T01:27:10;13.97;;;8.70;;
63807;SDS011;49961;43.970;22.868;2022-11-03T01:28:12;15.30;;;9.47;;
63807;SDS011;49961;43.970;22.868;2022-11-03T01:29:13;12.17;;;8.40;;
63807;SDS011;49961;43.970;22.868;2022-11-03T01:30:13;12.07;;;8.40;;
63807;SDS011;49961;43.970;22.868;2022-11-03T01:31:15;13.43;;;8.47;;
63807;SDS011;49961;43.970;22.868;2022-11-03T01:32:17;15.90;;;9.27;;
63807;SDS011;49961;43.970;22.868;2022-11-03T01:33:18;12.87;;;8.60;;
63807;SDS011;49961;43.970;22.868;2022-11-03T01:34:19;11.93;;;8.37;;
63807;SDS011;49961;43.970;22.868;2022-11-03T01:35:20;15.63;;;8.47;;
63807;SDS011;49961;43.970;22.868;2022-11-03T01:36:21;13.80;;;8.83;;
63807;SDS011;49961;43.970;22.868;2022-11-03T01:37:23;12.60;;;8.53;;
63807;SDS011;49961;43.970;22.868;2022-11-03T01:38:24;13.53;;;9.20;;
63807;SDS011;49961;43.970;22.868;2022-11-03T01:39:24;16.60;;;8.70;;
63807;SDS011;49961;43.970;22.868;2022-11-03T01:40:25;13.73;;;9.43;;
63807;SDS011;49961;43.970;22.868;2022-11-03T01:41:26;18.67;;;9.30;;
63807;SDS011;49961;43.970;22.868;2022-11-03T01:42:27;13.90;;;8.93;;
63807;SDS011;49961;43.970;22.868;2022-11-03T01:43:27;14.07;;;8.77;;
63807;SDS011;49961;43.970;22.868;2022-11-03T01:44:36;14.10;;;9.53;;
63807;SDS011;49961;43.970;22.868;2022-11-03T01:45:42;16.33;;;10.20;;
63807;SDS011;49961;43.970;22.868;2022-11-03T01:46:48;14.60;;;9.03;;
63807;SDS011;49961;43.970;22.868;2022-11-03T01:47:53;15.97;;;10.37;;
63807;SDS011;49961;43.970;22.868;2022-11-03T01:49:01;16.40;;;10.20;;
63807;SDS011;49961;43.970;22.868;2022-11-03T01:51:14;16.47;;;9.23;;
63807;SDS011;49961;43.970;22.868;2022-11-03T01:53:59;15.43;;;9.57;;
63807;SDS011;49961;43.970;22.868;2022-11-03T01:55:06;15.63;;;9.77;;
63807;SDS011;49961;43.970;22.868;2022-11-03T01:56:12;13.67;;;9.87;;
63807;SDS011;49961;43.970;22.868;2022-11-03T01:57:16;16.33;;;10.13;;
63807;SDS011;49961;43.970;22.868;2022-11-03T01:58:27;18.37;;;9.77;;
63807;SDS011;49961;43.970;22.868;2022-11-03T01:59:31;16.43;;;10.23;;
63807;SDS011;49961;43.970;22.868;2022-11-03T02:00:31;16.97;;;10.40;;
63807;SDS011;49961;43.970;22.868;2022-11-03T02:01:32;17.37;;;10.43;;
63807;SDS011;49961;43.970;22.868;2022-11-03T02:02:33;17.93;;;10.37;;
63807;SDS011;49961;43.970;22.868;2022-11-03T02:03:35;15.40;;;10.30;;
63807;SDS011;49961;43.970;22.868;2022-11-03T02:04:39;14.70;;;10.30;;
63807;SDS011;49961;43.970;22.868;2022-11-03T02:05:42;15.73;;;10.23;;
63807;SDS011;49961;43.970;22.868;2022-11-03T02:06:44;16.83;;;10.07;;
63807;SDS011;49961;43.970;22.868;2022-11-03T02:07:52;19.47;;;10.37;;
63807;SDS011;49961;43.970;22.868;2022-11-03T02:08:59;17.40;;;10.50;;
63807;SDS011;49961;43.970;22.868;2022-11-03T02:10:02;16.73;;;9.87;;
63807;SDS011;49961;43.970;22.868;2022-11-03T02:11:03;17.80;;;11.07;;
63807;SDS011;49961;43.970;22.868;2022-11-03T02:12:24;16.97;;;10.33;;
63807;SDS011;49961;43.970;22.868;2022-11-03T02:13:25;16.27;;;10.37;;
63807;SDS011;49961;43.970;22.868;2022-11-03T02:14:26;16.20;;;10.60;;
63807;SDS011;49961;43.970;22.868;2022-11-03T02:15:26;17.33;;;11.03;;
63807;SDS011;49961;43.970;22.868;2022-11-03T02:16:30;16.70;;;10.17;;
63807;SDS011;49961;43.970;22.868;2022-11-03T02:17:31;15.00;;;10.17;;
63807;SDS011;49961;43.970;22.868;2022-11-03T02:18:34;15.13;;;11.03;;
63807;SDS011;49961;43.970;22.868;2022-11-03T02:20:41;18.03;;;10.47;;
63807;SDS011;49961;43.970;22.868;2022-11-03T02:21:47;18.93;;;10.30;;
63807;SDS011;49961;43.970;22.868;2022-11-03T02:25:56;18.00;;;10.83;;
63807;SDS011;49961;43.970;22.868;2022-11-03T02:26:58;17.60;;;10.63;;
63807;SDS011;49961;43.970;22.868;2022-11-03T02:27:59;15.47;;;9.90;;
63807;SDS011;49961;43.970;22.868;2022-11-03T02:29:00;18.20;;;10.53;;
63807;SDS011;49961;43.970;22.868;2022-11-03T02:30:01;16.53;;;10.53;;
63807;SDS011;49961;43.970;22.868;2022-11-03T02:32:27;16.57;;;10.50;;
63807;SDS011;49961;43.970;22.868;2022-11-03T02:33:35;16.30;;;10.73;;
63807;SDS011;49961;43.970;22.868;2022-11-03T02:35:14;19.33;;;10.77;;
63807;SDS011;49961;43.970;22.868;2022-11-03T02:36:40;16.87;;;10.47;;
63807;SDS011;49961;43.970;22.868;2022-11-03T02:37:46;17.50;;;10.77;;
63807;SDS011;49961;43.970;22.868;2022-11-03T02:39:00;21.43;;;11.40;;
63807;SDS011;49961;43.970;22.868;2022-11-03T02:40:15;18.63;;;11.63;;
63807;SDS011;49961;43.970;22.868;2022-11-03T02:41:22;21.47;;;11.53;;
63807;SDS011;49961;43.970;22.868;2022-11-03T02:42:25;20.03;;;11.60;;
63807;SDS011;49961;43.970;22.868;2022-11-03T02:43:26;17.50;;;12.07;;
63807;SDS011;49961;43.970;22.868;2022-11-03T02:44:28;18.53;;;11.80;;
63807;SDS011;49961;43.970;22.868;2022-11-03T02:45:28;21.40;;;12.53;;
63807;SDS011;49961;43.970;22.868;2022-11-03T02:46:30;18.63;;;12.13;;
63807;SDS011;49961;43.970;22.868;2022-11-03T02:47:33;17.57;;;12.10;;
63807;SDS011;49961;43.970;22.868;2022-11-03T02:48:38;21.83;;;12.53;;
63807;SDS011;49961;43.970;22.868;2022-11-03T02:49:45;17.70;;;12.17;;
63807;SDS011;49961;43.970;22.868;2022-11-03T02:50:49;20.87;;;12.93;;
63807;SDS011;49961;43.970;22.868;2022-11-03T02:51:59;23.13;;;12.60;;
63807;SDS011;49961;43.970;22.868;2022-11-03T02:53:00;18.97;;;12.63;;
63807;SDS011;49961;43.970;22.868;2022-11-03T02:54:04;19.83;;;11.77;;
63807;SDS011;49961;43.970;22.868;2022-11-03T02:56:51;16.83;;;10.97;;
63807;SDS011;49961;43.970;22.868;2022-11-03T02:58:03;21.40;;;12.30;;
63807;SDS011;49961;43.970;22.868;2022-11-03T02:59:09;17.53;;;11.43;;
63807;SDS011;49961;43.970;22.868;2022-11-03T03:00:14;17.20;;;10.90;;
63807;SDS011;49961;43.970;22.868;2022-11-03T03:02:48;20.00;;;12.40;;
63807;SDS011;49961;43.970;22.868;2022-11-03T03:03:51;18.70;;;12.80;;
63807;SDS011;49961;43.970;22.868;2022-11-03T03:04:55;19.37;;;12.43;;
63807;SDS011;49961;43.970;22.868;2022-11-03T03:06:01;20.27;;;12.40;;
63807;SDS011;49961;43.970;22.868;2022-11-03T03:07:13;19.17;;;12.53;;
63807;SDS011;49961;43.970;22.868;2022-11-03T03:08:44;21.57;;;12.67;;
63807;SDS011;49961;43.970;22.868;2022-11-03T03:11:15;20.03;;;11.97;;
63807;SDS011;49961;43.970;22.868;2022-11-03T03:12:35;21.43;;;12.60;;
63807;SDS011;49961;43.970;22.868;2022-11-03T03:13:41;20.40;;;11.73;;
63807;SDS011;49961;43.970;22.868;2022-11-03T03:14:43;22.07;;;13.03;;
63807;SDS011;49961;43.970;22.868;2022-11-03T03:18:15;18.30;;;12.73;;
63807;SDS011;49961;43.970;22.868;2022-11-03T03:21:52;27.17;;;13.77;;
63807;SDS011;49961;43.970;22.868;2022-11-03T03:23:01;21.43;;;12.87;;
63807;SDS011;49961;43.970;22.868;2022-11-03T03:24:27;21.60;;;13.07;;
63807;SDS011;49961;43.970;22.868;2022-11-03T03:25:45;19.03;;;13.43;;
63807;SDS011;49961;43.970;22.868;2022-11-03T03:26:49;22.73;;;14.37;;
63807;SDS011;49961;43.970;22.868;2022-11-03T03:27:53;22.20;;;14.37;;
63807;SDS011;49961;43.970;22.868;2022-11-03T03:29:02;21.33;;;13.80;;
63807;SDS011;49961;43.970;22.868;2022-11-03T03:30:08;22.43;;;14.47;;
63807;SDS011;49961;43.970;22.868;2022-11-03T03:31:09;20.03;;;14.30;;
63807;SDS011;49961;43.970;22.868;2022-11-03T03:32:13;21.73;;;13.60;;
63807;SDS011;49961;43.970;22.868;2022-11-03T03:33:18;18.23;;;13.03;;
63807;SDS011;49961;43.970;22.868;2022-11-03T03:34:20;22.03;;;13.77;;
63807;SDS011;49961;43.970;22.868;2022-11-03T03:35:24;18.63;;;13.17;;
63807;SDS011;49961;43.970;22.868;2022-11-03T03:36:28;20.87;;;13.40;;
63807;SDS011;49961;43.970;22.868;2022-11-03T03:37:30;21.93;;;14.10;;
63807;SDS011;49961;43.970;22.868;2022-11-03T03:38:37;19.57;;;13.23;;
63807;SDS011;49961;43.970;22.868;2022-11-03T03:39:45;25.47;;;13.60;;
63807;SDS011;49961;43.970;22.868;2022-11-03T03:40:49;20.67;;;13.83;;
63807;SDS011;49961;43.970;22.868;2022-11-03T03:41:53;22.00;;;13.53;;
63807;SDS011;49961;43.970;22.868;2022-11-03T03:42:56;22.07;;;13.23;;
63807;SDS011;49961;43.970;22.868;2022-11-03T03:44:01;20.07;;;13.63;;
63807;SDS011;49961;43.970;22.868;2022-11-03T03:45:05;19.27;;;13.10;;
63807;SDS011;49961;43.970;22.868;2022-11-03T03:46:09;21.47;;;14.17;;
63807;SDS011;49961;43.970;22.868;2022-11-03T03:47:13;21.87;;;15.10;;
63807;SDS011;49961;43.970;22.868;2022-11-03T03:48:18;21.77;;;14.63;;
63807;SDS011;49961;43.970;22.868;2022-11-03T03:49:19;20.47;;;13.67;;
63807;SDS011;49961;43.970;22.868;2022-11-03T03:50:19;22.07;;;13.83;;
63807;SDS011;49961;43.970;22.868;2022-11-03T03:51:22;23.07;;;14.43;;
63807;SDS011;49961;43.970;22.868;2022-11-03T03:52:25;20.80;;;13.53;;
63807;SDS011;49961;43.970;22.868;2022-11-03T03:53:27;19.83;;;13.80;;
63807;SDS011;49961;43.970;22.868;2022-11-03T03:54:29;21.40;;;14.33;;
63807;SDS011;49961;43.970;22.868;2022-11-03T03:55:36;21.10;;;14.60;;
63807;SDS011;49961;43.970;22.868;2022-11-03T03:56:59;21.10;;;14.60;;
63807;SDS011;49961;43.970;22.868;2022-11-03T03:58:03;23.73;;;15.23;;
63807;SDS011;49961;43.970;22.868;2022-11-03T03:59:03;22.87;;;15.10;;
63807;SDS011;49961;43.970;22.868;2022-11-03T04:00:04;20.60;;;14.00;;
63807;SDS011;49961;43.970;22.868;2022-11-03T04:01:05;21.57;;;14.43;;
63807;SDS011;49961;43.970;22.868;2022-11-03T04:02:05;21.87;;;13.57;;
63807;SDS011;49961;43.970;22.868;2022-11-03T04:03:16;21.47;;;13.13;;
63807;SDS011;49961;43.970;22.868;2022-11-03T04:04:18;24.50;;;14.40;;
63807;SDS011;49961;43.970;22.868;2022-11-03T04:05:18;22.00;;;13.90;;
63807;SDS011;49961;43.970;22.868;2022-11-03T04:06:19;23.10;;;14.77;;
63807;SDS011;49961;43.970;22.868;2022-11-03T04:07:19;20.03;;;13.50;;
63807;SDS011;49961;43.970;22.868;2022-11-03T04:08:40;20.00;;;13.30;;
63807;SDS011;49961;43.970;22.868;2022-11-03T04:09:40;23.13;;;13.93;;
63807;SDS011;49961;43.970;22.868;2022-11-03T04:10:41;20.60;;;14.33;;
63807;SDS011;49961;43.970;22.868;2022-11-03T04:12:04;22.27;;;14.43;;
63807;SDS011;49961;43.970;22.868;2022-11-03T04:13:25;22.90;;;14.10;;
63807;SDS011;49961;43.970;22.868;2022-11-03T04:14:44;20.10;;;14.03;;
63807;SDS011;49961;43.970;22.868;2022-11-03T04:16:02;22.23;;;14.23;;
63807;SDS011;49961;43.970;22.868;2022-11-03T04:17:21;21.60;;;15.10;;
63807;SDS011;49961;43.970;22.868;2022-11-03T04:18:40;23.03;;;14.43;;
63807;SDS011;49961;43.970;22.868;2022-11-03T04:19:59;22.43;;;14.50;;
63807;SDS011;49961;43.970;22.868;2022-11-03T04:21:18;22.20;;;14.57;;
63807;SDS011;49961;43.970;22.868;2022-11-03T04:22:37;23.90;;;14.40;;
63807;SDS011;49961;43.970;22.868;2022-11-03T04:23:37;20.33;;;14.27;;
63807;SDS011;49961;43.970;22.868;2022-11-03T04:24:38;21.77;;;15.27;;
63807;SDS011;49961;43.970;22.868;2022-11-03T04:25:38;23.57;;;14.90;;
63807;SDS011;49961;43.970;22.868;2022-11-03T04:26:39;24.43;;;14.90;;
63807;SDS011;49961;43.970;22.868;2022-11-03T04:27:39;22.40;;;15.10;;
63807;SDS011;49961;43.970;22.868;2022-11-03T04:28:40;23.73;;;14.63;;
63807;SDS011;49961;43.970;22.868;2022-11-03T04:29:41;22.70;;;15.27;;
63807;SDS011;49961;43.970;22.868;2022-11-03T04:30:42;24.00;;;15.40;;
63807;SDS011;49961;43.970;22.868;2022-11-03T04:31:43;22.73;;;15.30;;
63807;SDS011;49961;43.970;22.868;2022-11-03T04:32:44;26.23;;;15.10;;
63807;SDS011;49961;43.970;22.868;2022-11-03T04:33:47;23.77;;;15.13;;
63807;SDS011;49961;43.970;22.868;2022-11-03T04:34:48;27.17;;;15.50;;
63807;SDS011;49961;43.970;22.868;2022-11-03T04:35:49;21.00;;;14.53;;
63807;SDS011;49961;43.970;22.868;2022-11-03T04:36:51;21.67;;;14.80;;
63807;SDS011;49961;43.970;22.868;2022-11-03T04:38:01;22.10;;;15.23;;
63807;SDS011;49961;43.970;22.868;2022-11-03T04:39:15;23.87;;;15.23;;
63807;SDS011;49961;43.970;22.868;2022-11-03T04:40:18;25.83;;;15.70;;
63807;SDS011;49961;43.970;22.868;2022-11-03T04:41:20;25.13;;;16.23;;
63807;SDS011;49961;43.970;22.868;2022-11-03T04:42:24;22.03;;;15.23;;
63807;SDS011;49961;43.970;22.868;2022-11-03T04:43:29;23.73;;;14.93;;
63807;SDS011;49961;43.970;22.868;2022-11-03T04:44:32;19.77;;;13.67;;
63807;SDS011;49961;43.970;22.868;2022-11-03T04:45:32;23.40;;;15.10;;
63807;SDS011;49961;43.970;22.868;2022-11-03T04:46:33;22.27;;;14.53;;
63807;SDS011;49961;43.970;22.868;2022-11-03T04:47:33;21.80;;;14.53;;
63807;SDS011;49961;43.970;22.868;2022-11-03T04:48:34;21.20;;;14.93;;
63807;SDS011;49961;43.970;22.868;2022-11-03T04:49:34;21.33;;;14.17;;
63807;SDS011;49961;43.970;22.868;2022-11-03T04:50:35;23.83;;;15.13;;
63807;SDS011;49961;43.970;22.868;2022-11-03T04:51:36;28.47;;;14.27;;
63807;SDS011;49961;43.970;22.868;2022-11-03T04:52:36;21.93;;;14.13;;
63807;SDS011;49961;43.970;22.868;2022-11-03T04:53:36;24.73;;;14.40;;
63807;SDS011;49961;43.970;22.868;2022-11-03T04:54:38;28.80;;;14.47;;
63807;SDS011;49961;43.970;22.868;2022-11-03T04:55:41;24.00;;;14.27;;
63807;SDS011;49961;43.970;22.868;2022-11-03T04:56:44;21.73;;;14.23;;
63807;SDS011;49961;43.970;22.868;2022-11-03T04:57:44;21.10;;;14.30;;
63807;SDS011;49961;43.970;22.868;2022-11-03T04:58:45;23.73;;;13.77;;
63807;SDS011;49961;43.970;22.868;2022-11-03T04:59:48;23.53;;;15.17;;
63807;SDS011;49961;43.970;22.868;2022-11-03T05:00:53;21.20;;;14.13;;
63807;SDS011;49961;43.970;22.868;2022-11-03T05:01:56;21.07;;;14.23;;
63807;SDS011;49961;43.970;22.868;2022-11-03T05:02:56;19.50;;;14.90;;
63807;SDS011;49961;43.970;22.868;2022-11-03T05:03:57;22.60;;;14.13;;
63807;SDS011;49961;43.970;22.868;2022-11-03T05:04:57;22.13;;;14.03;;
63807;SDS011;49961;43.970;22.868;2022-11-03T05:05:59;22.83;;;14.77;;
63807;SDS011;49961;43.970;22.868;2022-11-03T05:07:22;21.77;;;14.67;;
63807;SDS011;49961;43.970;22.868;2022-11-03T05:08:27;21.40;;;14.80;;
63807;SDS011;49961;43.970;22.868;2022-11-03T05:09:29;20.90;;;15.47;;
63807;SDS011;49961;43.970;22.868;2022-11-03T05:10:30;23.20;;;15.30;;
63807;SDS011;49961;43.970;22.868;2022-11-03T05:11:33;24.67;;;15.83;;
63807;SDS011;49961;43.970;22.868;2022-11-03T05:12:36;24.13;;;15.03;;
63807;SDS011;49961;43.970;22.868;2022-11-03T05:13:37;23.33;;;15.50;;
63807;SDS011;49961;43.970;22.868;2022-11-03T05:14:37;24.40;;;15.90;;
63807;SDS011;49961;43.970;22.868;2022-11-03T05:15:40;23.40;;;15.77;;
63807;SDS011;49961;43.970;22.868;2022-11-03T05:16:42;22.57;;;15.37;;
63807;SDS011;49961;43.970;22.868;2022-11-03T05:17:43;24.10;;;16.07;;
63807;SDS011;49961;43.970;22.868;2022-11-03T05:18:45;22.97;;;15.83;;
63807;SDS011;49961;43.970;22.868;2022-11-03T05:19:59;24.17;;;15.70;;
63807;SDS011;49961;43.970;22.868;2022-11-03T05:21:05;28.00;;;16.93;;
63807;SDS011;49961;43.970;22.868;2022-11-03T05:22:12;23.60;;;16.50;;
63807;SDS011;49961;43.970;22.868;2022-11-03T05:23:17;26.03;;;16.90;;
63807;SDS011;49961;43.970;22.868;2022-11-03T05:24:18;28.13;;;16.70;;
63807;SDS011;49961;43.970;22.868;2022-11-03T05:25:33;24.07;;;16.20;;
63807;SDS011;49961;43.970;22.868;2022-11-03T05:26:40;24.07;;;16.10;;
63807;SDS011;49961;43.970;22.868;2022-11-03T05:27:41;24.63;;;16.40;;
63807;SDS011;49961;43.970;22.868;2022-11-03T05:28:42;25.23;;;16.20;;
63807;SDS011;49961;43.970;22.868;2022-11-03T05:29:46;23.47;;;16.87;;
63807;SDS011;49961;43.970;22.868;2022-11-03T05:30:48;27.63;;;17.17;;
63807;SDS011;49961;43.970;22.868;2022-11-03T05:31:49;24.13;;;16.67;;
63807;SDS011;49961;43.970;22.868;2022-11-03T05:32:52;25.50;;;16.57;;
63807;SDS011;49961;43.970;22.868;2022-11-03T05:33:55;26.47;;;16.37;;
63807;SDS011;49961;43.970;22.868;2022-11-03T05:34:58;25.90;;;16.97;;
63807;SDS011;49961;43.970;22.868;2022-11-03T05:36:06;26.47;;;17.23;;
63807;SDS011;49961;43.970;22.868;2022-11-03T05:37:23;30.70;;;18.70;;
63807;SDS011;49961;43.970;22.868;2022-11-03T05:38:32;26.43;;;18.30;;
63807;SDS011;49961;43.970;22.868;2022-11-03T05:39:34;32.93;;;20.23;;
63807;SDS011;49961;43.970;22.868;2022-11-03T05:40:36;28.07;;;17.70;;
63807;SDS011;49961;43.970;22.868;2022-11-03T05:41:37;29.27;;;18.23;;
63807;SDS011;49961;43.970;22.868;2022-11-03T05:42:41;26.00;;;17.70;;
63807;SDS011;49961;43.970;22.868;2022-11-03T05:43:46;30.70;;;18.60;;
63807;SDS011;49961;43.970;22.868;2022-11-03T05:44:53;26.70;;;17.30;;
63807;SDS011;49961;43.970;22.868;2022-11-03T05:45:55;29.90;;;18.63;;
63807;SDS011;49961;43.970;22.868;2022-11-03T05:46:59;28.43;;;19.63;;
63807;SDS011;49961;43.970;22.868;2022-11-03T05:48:02;27.27;;;17.53;;
63807;SDS011;49961;43.970;22.868;2022-11-03T05:49:12;26.37;;;18.43;;
63807;SDS011;49961;43.970;22.868;2022-11-03T05:50:18;29.33;;;19.80;;
63807;SDS011;49961;43.970;22.868;2022-11-03T05:51:21;33.53;;;20.60;;
63807;SDS011;49961;43.970;22.868;2022-11-03T05:52:25;33.13;;;20.07;;
63807;SDS011;49961;43.970;22.868;2022-11-03T05:53:32;32.13;;;19.83;;
63807;SDS011;49961;43.970;22.868;2022-11-03T05:54:42;31.50;;;21.23;;
63807;SDS011;49961;43.970;22.868;2022-11-03T05:55:43;32.33;;;20.37;;
63807;SDS011;49961;43.970;22.868;2022-11-03T05:56:43;28.77;;;19.87;;
63807;SDS011;49961;43.970;22.868;2022-11-03T05:57:43;31.77;;;21.60;;
63807;SDS011;49961;43.970;22.868;2022-11-03T05:58:44;34.83;;;20.43;;
63807;SDS011;49961;43.970;22.868;2022-11-03T05:59:49;33.33;;;20.53;;
63807;SDS011;49961;43.970;22.868;2022-11-03T06:00:53;29.70;;;20.10;;
63807;SDS011;49961;43.970;22.868;2022-11-03T06:01:58;35.13;;;22.63;;
63807;SDS011;49961;43.970;22.868;2022-11-03T06:02:59;31.27;;;20.80;;
63807;SDS011;49961;43.970;22.868;2022-11-03T06:04:02;29.83;;;20.37;;
63807;SDS011;49961;43.970;22.868;2022-11-03T06:05:15;30.57;;;19.90;;
63807;SDS011;49961;43.970;22.868;2022-11-03T06:06:20;30.57;;;20.13;;
63807;SDS011;49961;43.970;22.868;2022-11-03T06:07:22;33.63;;;20.63;;
63807;SDS011;49961;43.970;22.868;2022-11-03T06:08:27;35.70;;;20.07;;
63807;SDS011;49961;43.970;22.868;2022-11-03T06:09:34;28.60;;;19.57;;
63807;SDS011;49961;43.970;22.868;2022-11-03T06:10:35;30.20;;;20.07;;
63807;SDS011;49961;43.970;22.868;2022-11-03T06:11:49;30.50;;;19.97;;
63807;SDS011;49961;43.970;22.868;2022-11-03T06:12:53;29.07;;;20.37;;
63807;SDS011;49961;43.970;22.868;2022-11-03T06:13:55;28.40;;;20.30;;
63807;SDS011;49961;43.970;22.868;2022-11-03T06:14:57;31.87;;;19.63;;
63807;SDS011;49961;43.970;22.868;2022-11-03T06:15:59;27.83;;;19.30;;
63807;SDS011;49961;43.970;22.868;2022-11-03T06:17:03;29.33;;;20.13;;
63807;SDS011;49961;43.970;22.868;2022-11-03T06:18:11;29.93;;;19.97;;
63807;SDS011;49961;43.970;22.868;2022-11-03T06:19:34;29.00;;;20.63;;
63807;SDS011;49961;43.970;22.868;2022-11-03T06:20:37;28.27;;;20.30;;
63807;SDS011;49961;43.970;22.868;2022-11-03T06:21:38;28.43;;;19.63;;
63807;SDS011;49961;43.970;22.868;2022-11-03T06:22:39;26.73;;;19.27;;
63807;SDS011;49961;43.970;22.868;2022-11-03T06:23:39;31.13;;;20.43;;
63807;SDS011;49961;43.970;22.868;2022-11-03T06:24:40;29.03;;;19.33;;
63807;SDS011;49961;43.970;22.868;2022-11-03T06:25:41;29.70;;;19.27;;
63807;SDS011;49961;43.970;22.868;2022-11-03T06:26:42;31.40;;;20.13;;
63807;SDS011;49961;43.970;22.868;2022-11-03T06:27:45;27.23;;;19.10;;
63807;SDS011;49961;43.970;22.868;2022-11-03T06:28:46;28.30;;;18.73;;
63807;SDS011;49961;43.970;22.868;2022-11-03T06:29:58;26.87;;;19.53;;
63807;SDS011;49961;43.970;22.868;2022-11-03T06:31:00;32.40;;;19.60;;
63807;SDS011;49961;43.970;22.868;2022-11-03T06:32:01;30.17;;;19.83;;